Time;durP1;ratioP1;P1;durP2;ratioP2;P2;SDS_P1;SDS_P2;PMS_P1;PMS_P2;Temp;Humidity;BMP_temperature;BMP_pressure;BME280_temperature;BME280_humidity;BME280_pressure;Samples;Min_cycle;Max_cycle;Signal;HPM_P1;HPM_P2
2023/07/21 00:01:18;;;;;;;3.10;2.70;;;14.10;99.90;;;;;;4979485;28;20240;-82
2023/07/21 00:03:48;;;;;;;3.97;2.97;;;14.00;99.90;;;;;;4989906;28;20195;-85
2023/07/21 00:06:24;;;;;;;3.53;2.33;;;14.00;99.90;;;;;;4956038;28;20248;-84
2023/07/21 00:09:14;;;;;;;3.00;2.03;;;13.90;99.90;;;;;;4964339;28;20231;-84
2023/07/21 00:11:40;;;;;;;2.27;1.80;;;13.90;99.90;;;;;;4943056;28;20239;-84
2023/07/21 00:14:10;;;;;;;3.77;2.27;;;13.90;99.90;;;;;;4942517;28;20220;-84
2023/07/21 00:16:53;;;;;;;3.03;2.60;;;13.90;99.90;;;;;;4933242;28;20725;-84
2023/07/21 00:19:24;;;;;;;4.77;2.60;;;13.90;99.90;;;;;;4963469;28;20208;-83
2023/07/21 00:22:11;;;;;;;3.50;2.47;;;13.80;99.90;;;;;;4989913;28;20179;-85
2023/07/21 00:25:06;;;;;;;3.13;2.53;;;13.80;99.90;;;;;;4974573;28;20175;-84
2023/07/21 00:28:03;;;;;;;3.00;2.70;;;13.80;99.90;;;;;;4948998;29;20276;-84
2023/07/21 00:31:01;;;;;;;3.30;3.00;;;13.80;99.90;;;;;;4949283;29;20344;-83
2023/07/21 00:33:32;;;;;;;2.87;1.77;;;13.90;99.90;;;;;;4947303;29;20199;-83
2023/07/21 00:36:04;;;;;;;2.10;1.90;;;13.90;99.90;;;;;;4948096;29;20272;-84
2023/07/21 00:38:30;;;;;;;2.80;2.30;;;13.80;99.90;;;;;;4933014;29;20698;-85
2023/07/21 00:41:07;;;;;;;3.23;2.93;;;13.80;99.90;;;;;;4948964;29;20216;-84
2023/07/21 00:43:57;;;;;;;3.43;2.50;;;13.80;99.90;;;;;;4922193;29;20214;-84
2023/07/21 00:46:31;;;;;;;3.10;2.53;;;13.80;99.90;;;;;;4948865;29;20806;-84
2023/07/21 00:53:39;;;;;;;2.03;1.93;;;13.80;99.90;;;;;;4911153;29;20229;-84
2023/07/21 00:56:20;;;;;;;4.70;2.37;;;13.80;99.90;;;;;;4907920;29;20192;-85
2023/07/21 00:59:04;;;;;;;3.63;2.30;;;13.80;99.90;;;;;;4981005;28;20215;-85
2023/07/21 01:01:38;;;;;;;2.03;1.70;;;13.90;99.90;;;;;;4977398;28;20283;-84
2023/07/21 01:04:48;;;;;;;9.67;2.63;;;13.90;99.90;;;;;;4977424;28;20199;-85
2023/07/21 01:11:47;;;;;;;3.77;3.47;;;13.90;99.90;;;;;;4993700;28;20171;-85
2023/07/21 01:22:01;;;;;;;2.40;2.20;;;13.70;99.90;;;;;;4978365;28;20830;-85
2023/07/21 01:25:11;;;;;;;3.70;2.07;;;13.70;99.90;;;;;;4975626;28;20269;-85
2023/07/21 01:27:48;;;;;;;2.90;2.40;;;13.70;99.90;;;;;;4974733;28;20215;-84
2023/07/21 01:30:40;;;;;;;4.27;3.13;;;13.60;99.90;;;;;;5010553;28;20218;-84
2023/07/21 01:33:07;;;;;;;3.60;2.03;;;13.60;99.90;;;;;;4989446;28;20224;-85
2023/07/21 01:35:36;;;;;;;3.70;2.53;;;13.60;99.90;;;;;;4983161;28;20216;-85
2023/07/21 01:38:15;;;;;;;3.57;2.67;;;13.60;99.90;;;;;;4984438;28;20222;-85
2023/07/21 01:40:50;;;;;;;4.40;1.80;;;13.50;99.90;;;;;;4997310;28;20233;-87
2023/07/21 01:43:25;;;;;;;4.13;3.67;;;13.50;99.90;;;;;;4982204;28;20220;-86
2023/07/21 01:45:59;;;;;;;5.57;2.93;;;13.50;99.90;;;;;;4988338;28;20195;-83
2023/07/21 01:49:04;;;;;;;4.30;2.63;;;13.40;99.90;;;;;;4974991;28;20283;-83
2023/07/21 01:51:43;;;;;;;3.90;2.67;;;13.40;99.90;;;;;;5006945;28;20218;-84
2023/07/21 01:54:16;;;;;;;4.57;2.37;;;13.40;99.90;;;;;;4991891;28;20623;-85
2023/07/21 01:57:06;;;;;;;3.50;2.20;;;13.40;99.90;;;;;;4990744;28;20212;-84
2023/07/21 01:59:45;;;;;;;5.43;3.20;;;13.40;99.90;;;;;;4991808;28;20248;-83
2023/07/21 02:02:18;;;;;;;4.13;3.20;;;13.30;99.90;;;;;;4983347;28;20220;-85
2023/07/21 02:05:08;;;;;;;3.23;2.60;;;13.30;99.90;;;;;;4958528;28;20226;-85
2023/07/21 02:12:21;;;;;;;4.57;3.47;;;13.30;99.90;;;;;;4954044;28;20255;-83
2023/07/21 02:15:05;;;;;;;2.57;2.20;;;13.30;99.90;;;;;;4950847;28;20960;-85
2023/07/21 02:17:39;;;;;;;5.30;3.40;;;13.30;99.90;;;;;;4914640;29;20324;-84
2023/07/21 02:24:02;;;;;;;4.33;2.80;;;13.20;99.90;;;;;;4890798;29;20272;-84
2023/07/21 02:26:40;;;;;;;6.53;2.63;;;13.20;99.90;;;;;;4949869;28;20308;-83
2023/07/21 02:29:08;;;;;;;3.60;2.23;;;13.20;99.90;;;;;;4941172;28;20228;-84
2023/07/21 02:31:39;;;;;;;4.27;2.13;;;13.20;99.90;;;;;;4909111;29;20244;-84
2023/07/21 02:34:26;;;;;;;4.53;2.47;;;13.20;99.90;;;;;;4929021;29;20244;-84
2023/07/21 02:37:15;;;;;;;3.77;2.57;;;13.10;99.90;;;;;;4935637;29;20722;-84
2023/07/21 02:40:12;;;;;;;3.63;2.27;;;13.10;99.90;;;;;;4940478;28;20231;-84
2023/07/21 02:42:58;;;;;;;4.63;2.73;;;13.10;99.90;;;;;;4972513;28;20204;-85
2023/07/21 02:45:24;;;;;;;6.70;1.80;;;13.10;99.90;;;;;;4965311;28;20207;-84
2023/07/21 02:47:55;;;;;;;3.23;2.13;;;13.10;99.90;;;;;;4963928;28;20303;-85
2023/07/21 02:51:20;;;;;;;2.77;2.07;;;13.10;99.90;;;;;;4989828;28;20220;-83
2023/07/21 02:53:56;;;;;;;9.03;2.20;;;13.20;99.90;;;;;;4946718;28;20231;-84
2023/07/21 03:00:45;;;;;;;2.97;1.77;;;13.30;99.90;;;;;;4949432;28;20238;-84
2023/07/21 03:03:12;;;;;;;3.57;2.50;;;13.30;99.90;;;;;;4956142;28;20295;-84
2023/07/21 03:05:41;;;;;;;5.50;3.50;;;13.30;99.90;;;;;;4954010;28;20224;-84
2023/07/21 03:09:05;;;;;;;6.07;3.57;;;13.30;99.90;;;;;;4952810;28;20220;-87
2023/07/21 03:11:42;;;;;;;2.70;2.37;;;13.30;99.90;;;;;;4958499;28;20328;-85
2023/07/21 03:14:46;;;;;;;4.73;2.93;;;13.30;99.90;;;;;;4974557;28;20172;-85
2023/07/21 03:17:57;;;;;;;4.73;3.03;;;13.30;99.90;;;;;;4991743;28;20196;-86
2023/07/21 03:20:58;;;;;;;;;;;;;;;;;;;;;
2023/07/21 03:24:07;;;;;;;4.00;2.57;;;13.30;99.90;;;;;;4990250;28;20254;-86
2023/07/21 03:27:01;;;;;;;3.50;2.60;;;13.30;99.90;;;;;;5002438;28;20188;-84
2023/07/21 03:29:46;;;;;;;8.73;2.83;;;13.30;99.90;;;;;;4972332;28;20192;-84
2023/07/21 03:32:20;;;;;;;5.33;3.00;;;13.20;99.90;;;;;;4973682;28;20184;-84
2023/07/21 03:34:54;;;;;;;5.30;3.40;;;13.20;99.90;;;;;;4973307;28;20271;-84
2023/07/21 03:37:30;;;;;;;4.17;2.70;;;13.20;99.90;;;;;;5005904;28;20172;-83
2023/07/21 03:40:17;;;;;;;4.23;2.43;;;13.20;99.90;;;;;;4989199;28;20227;-84
2023/07/21 03:42:55;;;;;;;5.47;2.63;;;13.10;99.90;;;;;;4973408;28;20188;-84
2023/07/21 03:45:23;;;;;;;3.53;2.63;;;13.10;99.90;;;;;;4972651;28;20190;-84
2023/07/21 03:48:15;;;;;;;4.47;2.37;;;13.10;99.90;;;;;;5003016;28;20688;-86
2023/07/21 03:50:44;;;;;;;3.33;2.00;;;13.10;99.90;;;;;;4973795;28;20176;-84
2023/07/21 03:53:25;;;;;;;2.80;2.60;;;13.10;99.90;;;;;;4974165;28;20188;-84
2023/07/21 03:55:51;;;;;;;3.57;2.33;;;13.10;99.90;;;;;;4989672;28;20267;-85
2023/07/21 03:58:20;;;;;;;3.90;3.03;;;13.20;99.90;;;;;;4990988;28;20263;-84
2023/07/21 04:01:00;;;;;;;3.03;2.33;;;13.20;99.90;;;;;;4972582;28;20673;-85
2023/07/21 04:03:26;;;;;;;3.87;3.00;;;13.30;99.90;;;;;;4988662;28;20734;-86
2023/07/21 04:05:53;;;;;;;3.43;2.67;;;13.30;99.90;;;;;;4988000;28;20251;-84
2023/07/21 04:08:27;;;;;;;3.57;2.30;;;13.40;99.90;;;;;;4972804;28;20192;-84
2023/07/21 04:15:23;;;;;;;4.37;3.33;;;13.60;99.90;;;;;;4990738;28;20713;-84
2023/07/21 04:18:41;;;;;;;2.97;2.17;;;13.70;99.90;;;;;;4989006;28;20204;-84
2023/07/21 04:21:10;;;;;;;4.73;2.60;;;13.80;99.90;;;;;;4989249;28;20302;-84
2023/07/21 04:23:48;;;;;;;3.40;2.50;;;13.80;99.90;;;;;;5005881;28;20712;-84
2023/07/21 04:26:17;;;;;;;3.87;2.50;;;13.80;99.90;;;;;;4973232;28;20156;-84
2023/07/21 04:28:52;;;;;;;5.20;2.80;;;13.80;99.90;;;;;;4973178;28;20187;-84
2023/07/21 04:31:28;;;;;;;2.97;2.27;;;13.90;99.90;;;;;;4972756;28;20238;-86
2023/07/21 04:34:09;;;;;;;4.00;2.93;;;14.00;99.90;;;;;;4976325;28;20179;-84
2023/07/21 04:36:52;;;;;;;2.73;2.33;;;14.00;99.90;;;;;;4995753;28;20168;-86
2023/07/21 04:39:28;;;;;;;3.23;2.90;;;14.10;99.90;;;;;;4979457;28;20174;-83
2023/07/21 04:42:02;;;;;;;6.77;2.50;;;14.10;99.90;;;;;;5011995;28;20332;-85
2023/07/21 04:44:31;;;;;;;3.87;2.10;;;14.10;99.90;;;;;;4995826;28;20168;-86
2023/07/21 04:47:07;;;;;;;5.03;2.20;;;14.20;99.90;;;;;;4996994;28;20337;-83
2023/07/21 04:49:39;;;;;;;3.37;2.23;;;14.20;99.90;;;;;;5010875;28;20171;-84
2023/07/21 04:52:10;;;;;;;4.53;2.27;;;14.20;99.90;;;;;;4978410;28;20195;-85
2023/07/21 04:54:42;;;;;;;3.47;1.90;;;14.20;99.90;;;;;;4978085;28;20207;-83
2023/07/21 04:57:14;;;;;;;3.37;2.33;;;14.20;99.90;;;;;;4994225;28;20187;-83
2023/07/21 04:59:46;;;;;;;2.60;2.00;;;14.20;99.90;;;;;;4991661;28;20253;-85
2023/07/21 05:02:15;;;;;;;4.63;2.67;;;14.20;99.90;;;;;;4979221;28;20192;-83
2023/07/21 05:04:57;;;;;;;2.43;1.93;;;14.30;99.90;;;;;;4979216;28;20263;-85
2023/07/21 05:07:37;;;;;;;4.27;2.47;;;14.40;99.90;;;;;;4978975;28;20230;-83
2023/07/21 05:10:06;;;;;;;3.93;2.07;;;14.50;99.90;;;;;;4996346;28;20183;-84
2023/07/21 05:12:37;;;;;;;4.67;2.53;;;14.40;99.90;;;;;;4995011;28;20236;-83
2023/07/21 05:15:15;;;;;;;4.13;3.37;;;14.30;99.90;;;;;;4978618;28;20279;-85
2023/07/21 05:17:55;;;;;;;12.33;2.43;;;14.30;99.90;;;;;;5010893;28;20175;-85
2023/07/21 05:20:42;;;;;;;9.50;3.33;;;14.50;99.90;;;;;;4994765;28;20212;-85
2023/07/21 05:23:09;;;;;;;5.23;2.87;;;14.60;99.90;;;;;;4995777;28;20215;-84
2023/07/21 05:25:40;;;;;;;5.33;3.17;;;14.70;99.90;;;;;;4996360;28;20234;-84
2023/07/21 05:28:20;;;;;;;4.33;2.53;;;14.80;99.90;;;;;;4995311;28;20206;-85
2023/07/21 05:30:57;;;;;;;7.10;2.23;;;14.70;99.90;;;;;;4976634;28;20176;-83
2023/07/21 05:33:33;;;;;;;3.10;2.30;;;14.70;99.90;;;;;;4996073;28;20215;-84
2023/07/21 05:36:37;;;;;;;5.33;3.17;;;14.70;99.90;;;;;;4965719;28;20207;-85
2023/07/21 05:39:08;;;;;;;3.90;2.80;;;14.90;99.90;;;;;;4994904;28;20168;-85
2023/07/21 05:41:39;;;;;;;3.73;2.63;;;15.00;99.90;;;;;;5010487;28;20208;-84
2023/07/21 05:44:22;;;;;;;4.70;3.10;;;15.40;99.90;;;;;;4993898;28;20168;-84
2023/07/21 05:50:01;;;;;;;6.43;3.03;;;16.00;99.90;;;;;;4991759;28;20177;-85
2023/07/21 05:52:55;;;;;;;;;;;;;;;;;;;;;
2023/07/21 05:55:24;;;;;;;3.30;2.03;;;16.30;99.90;;;;;;4991340;28;20185;-85
2023/07/21 05:57:53;;;;;;;4.70;3.10;;;16.30;99.90;;;;;;4974780;28;20279;-84
2023/07/21 06:00:28;;;;;;;4.93;3.33;;;17.20;99.90;;;;;;4975043;28;20594;-85
2023/07/21 06:03:02;;;;;;;5.70;2.97;;;17.30;99.90;;;;;;5006704;28;20172;-86
2023/07/21 06:05:37;;;;;;;5.37;2.47;;;17.10;99.90;;;;;;5005665;28;20202;-85
2023/07/21 06:08:36;;;;;;;4.30;2.47;;;16.80;99.90;;;;;;4975130;28;20192;-86
2023/07/21 06:11:41;;;;;;;;;;;;;;;;;;;;;
2023/07/21 06:14:30;;;;;;;5.37;3.23;;;16.90;99.90;;;;;;4992652;28;20238;-85
2023/07/21 06:17:34;;;;;;;4.27;3.17;;;17.10;99.90;;;;;;4974029;28;20180;-85
2023/07/21 06:20:12;;;;;;;4.40;3.00;;;17.20;99.90;;;;;;5004901;28;20227;-87
2023/07/21 06:23:04;;;;;;;4.37;3.30;;;18.00;99.90;;;;;;5007645;28;20635;-86
2023/07/21 06:25:30;;;;;;;7.13;3.17;;;18.70;99.90;;;;;;4972693;28;20192;-85
2023/07/21 06:27:57;;;;;;;8.00;3.93;;;18.90;99.90;;;;;;4973644;28;20326;-84
2023/07/21 06:30:23;;;;;;;6.20;3.30;;;18.80;99.90;;;;;;4991035;28;20196;-83
2023/07/21 06:32:49;;;;;;;4.33;2.93;;;18.70;99.90;;;;;;5006117;28;20183;-84
2023/07/21 06:35:26;;;;;;;5.47;3.07;;;18.30;99.90;;;;;;4974395;28;20183;-84
2023/07/21 06:38:12;;;;;;;4.17;3.07;;;18.20;99.90;;;;;;4987123;28;20290;-86
2023/07/21 06:40:41;;;;;;;5.50;3.73;;;18.00;99.90;;;;;;4989505;28;20319;-86
2023/07/21 06:43:11;;;;;;;3.30;2.03;;;18.20;99.90;;;;;;4991853;28;20203;-85
2023/07/21 06:45:39;;;;;;;4.40;3.10;;;18.30;99.90;;;;;;4991865;28;20365;-87
2023/07/21 06:48:27;;;;;;;4.50;3.00;;;18.50;99.90;;;;;;4991715;28;20188;-87
2023/07/21 06:50:57;;;;;;;4.67;2.90;;;18.70;99.90;;;;;;4974432;28;20645;-84
2023/07/21 06:53:45;;;;;;;4.77;2.63;;;19.10;99.90;;;;;;4989632;28;20189;-85
2023/07/21 06:56:27;;;;;;;3.60;2.93;;;19.30;99.90;;;;;;5006569;28;20172;-86
2023/07/21 06:58:53;;;;;;;3.33;2.73;;;19.10;99.90;;;;;;4989938;28;20188;-85
2023/07/21 07:04:45;;;;;;;6.00;3.20;;;19.30;99.90;;;;;;4990230;28;20211;-86
2023/07/21 07:07:13;;;;;;;4.50;2.70;;;19.00;99.90;;;;;;5006360;28;20180;-84
2023/07/21 07:10:14;;;;;;;5.00;3.10;;;19.00;99.90;;;;;;5005178;28;20253;-86
2023/07/21 07:12:54;;;;;;;4.70;3.20;;;19.30;99.90;;;;;;4988457;28;20235;-88
2023/07/21 07:15:36;;;;;;;4.03;3.00;;;19.20;99.90;;;;;;4990445;28;20172;-85
2023/07/21 07:18:13;;;;;;;5.53;2.77;;;19.10;99.90;;;;;;4973540;28;20563;-86
2023/07/21 07:21:03;;;;;;;;;;;;;;;;;;;;;
2023/07/21 07:23:38;;;;;;;6.27;3.83;;;19.90;99.90;;;;;;4991129;28;20688;-87
2023/07/21 07:26:24;;;;;;;3.67;3.00;;;20.40;99.90;;;;;;4991198;28;20164;-86
2023/07/21 07:28:52;;;;;;;5.33;2.50;;;21.40;99.90;;;;;;5004444;28;20191;-88
2023/07/21 07:31:23;;;;;;;4.20;2.53;;;21.70;99.90;;;;;;4973391;28;20701;-87
2023/07/21 07:34:47;;;;;;;3.30;2.73;;;22.20;99.90;;;;;;4967315;28;20291;-87
2023/07/21 07:37:19;;;;;;;3.40;2.77;;;22.60;99.90;;;;;;4987466;28;20188;-87
2023/07/21 07:47:08;;;;;;;2.50;1.88;;;29.70;99.90;;;;;;4990601;28;20179;-86
2023/07/21 07:49:46;;;;;;;2.80;2.13;;;28.00;99.90;;;;;;4990038;28;20192;-86
2023/07/21 07:52:12;;;;;;;2.40;2.00;;;26.80;99.90;;;;;;4990268;28;20168;-86
2023/07/21 07:54:58;;;;;;;2.83;1.92;;;25.70;99.90;;;;;;4988739;28;20596;-86
2023/07/21 07:57:40;;;;;;;2.10;1.83;;;25.20;99.90;;;;;;4959249;28;20179;-86
2023/07/21 08:00:14;;;;;;;1.90;1.63;;;24.40;99.90;;;;;;5004465;28;20208;-86
2023/07/21 08:02:43;;;;;;;1.55;0.85;;;24.30;99.90;;;;;;4972947;28;20292;-86
2023/07/21 08:05:16;;;;;;;0.88;0.88;;;25.70;99.90;;;;;;4972361;28;20176;-85
2023/07/21 08:08:10;;;;;;;0.88;0.75;;;27.70;99.90;;;;;;4972671;28;20180;-86
2023/07/21 08:10:52;;;;;;;1.15;1.02;;;28.60;99.90;;;;;;5005920;28;20180;-87
2023/07/21 08:13:44;;;;;;;1.42;0.85;;;29.90;99.90;;;;;;4988781;28;20864;-85
2023/07/21 08:16:25;;;;;;;2.40;1.17;;;30.20;99.90;;;;;;5003790;28;20196;-86
2023/07/21 08:26:20;;;;;;;0.73;0.70;;;29.30;99.90;;;;;;4963257;28;20386;-86
2023/07/21 08:28:52;;;;;;;3.83;1.50;;;28.30;99.90;;;;;;5004294;28;20227;-86
2023/07/21 08:31:19;;;;;;;1.17;0.85;;;28.10;99.90;;;;;;4971050;28;20227;-87
2023/07/21 08:33:51;;;;;;;2.78;1.10;;;28.10;99.90;;;;;;5003495;28;20334;-83
2023/07/21 08:36:23;;;;;;;1.35;0.82;;;28.70;99.90;;;;;;4970819;28;20219;-85
2023/07/21 08:38:50;;;;;;;1.25;1.00;;;29.00;99.90;;;;;;4978476;28;20362;-87
2023/07/21 08:41:22;;;;;;;1.45;1.02;;;29.10;99.90;;;;;;4994096;28;20268;-86
2023/07/21 08:43:49;;;;;;;1.65;1.38;;;28.80;99.90;;;;;;4969540;28;20215;-85
2023/07/21 08:46:18;;;;;;;0.85;0.85;;;27.40;99.90;;;;;;4987378;28;20399;-85
2023/07/21 08:48:49;;;;;;;1.77;0.93;;;26.40;99.90;;;;;;5003812;28;20191;-86
2023/07/21 08:51:15;;;;;;;1.15;1.02;;;26.80;99.90;;;;;;4979191;28;20693;-83
2023/07/21 08:53:40;;;;;;;2.40;1.15;;;26.60;99.90;;;;;;4970127;28;20235;-83
2023/07/21 08:56:06;;;;;;;3.10;1.23;;;25.40;99.90;;;;;;4969513;28;20305;-85
2023/07/21 08:58:32;;;;;;;1.80;1.65;;;24.90;99.90;;;;;;4970221;28;20303;-84
2023/07/21 09:00:58;;;;;;;3.03;1.90;;;24.80;99.90;;;;;;4969645;28;20239;-85
2023/07/21 09:03:33;;;;;;;2.85;1.77;;;25.00;99.90;;;;;;5002910;28;20724;-83
2023/07/21 09:06:00;;;;;;;3.75;1.55;;;25.70;99.90;;;;;;4987190;28;20265;-84
2023/07/21 09:08:31;;;;;;;2.08;1.50;;;26.60;99.90;;;;;;4986900;28;20285;-85
2023/07/21 09:11:04;;;;;;;2.20;1.95;;;27.70;99.90;;;;;;4994618;28;20282;-83
2023/07/21 09:13:31;;;;;;;3.78;1.77;;;28.40;99.90;;;;;;4985561;28;20275;-84
2023/07/21 09:16:07;;;;;;;2.35;1.63;;;27.80;99.90;;;;;;4988202;28;20565;-86
2023/07/21 09:18:52;;;;;;;3.15;2.20;;;26.70;99.90;;;;;;5003146;28;20536;-85
2023/07/21 09:21:22;;;;;;;2.15;1.95;;;26.40;99.90;;;;;;4991030;28;20701;-85
2023/07/21 09:24:09;;;;;;;1.50;1.40;;;25.40;99.90;;;;;;4990872;28;20671;-86
2023/07/21 09:26:34;;;;;;;2.35;1.25;;;25.50;99.90;;;;;;4990101;28;20227;-87
2023/07/21 09:29:16;;;;;;;1.50;1.30;;;24.90;99.90;;;;;;4989955;28;20314;-86
2023/07/21 09:31:44;;;;;;;2.03;1.17;;;24.10;99.90;;;;;;5005952;28;20216;-86
2023/07/21 09:34:10;;;;;;;2.22;1.80;;;23.70;99.90;;;;;;4989696;28;20180;-88
2023/07/21 09:36:36;;;;;;;1.65;1.55;;;23.40;99.90;;;;;;4992229;28;20695;-86
2023/07/21 09:39:07;;;;;;;2.95;2.00;;;22.50;99.90;;;;;;4973886;28;20317;-86
2023/07/21 09:41:34;;;;;;;2.22;1.90;;;22.40;99.90;;;;;;4990434;28;20294;-86
2023/07/21 09:44:00;;;;;;;1.88;1.63;;;22.00;99.90;;;;;;4991161;28;20228;-86
2023/07/21 09:46:30;;;;;;;1.92;1.73;;;21.80;99.90;;;;;;4973954;28;20210;-88
2023/07/21 09:48:58;;;;;;;2.58;1.60;;;21.50;99.90;;;;;;4974190;28;20180;-85
2023/07/21 09:51:26;;;;;;;2.42;1.50;;;21.40;99.90;;;;;;4975049;28;20263;-85
2023/07/21 09:54:05;;;;;;;1.70;1.33;;;21.30;99.90;;;;;;5006345;28;20216;-87
2023/07/21 09:56:38;;;;;;;1.90;1.57;;;20.90;99.90;;;;;;4994339;28;20703;-86
2023/07/21 09:59:06;;;;;;;1.30;1.10;;;20.60;99.90;;;;;;4992448;28;20258;-84
2023/07/21 10:01:35;;;;;;;1.47;1.37;;;20.50;99.90;;;;;;4990203;28;20235;-86
2023/07/21 10:04:03;;;;;;;1.47;1.37;;;19.90;99.90;;;;;;4973215;28;20705;-86
2023/07/21 10:06:41;;;;;;;4.47;1.40;;;19.60;99.90;;;;;;4992380;28;20668;-86
2023/07/21 10:09:19;;;;;;;2.27;1.13;;;19.30;99.90;;;;;;4967209;28;20360;-87
2023/07/21 10:18:38;;;;;;;2.70;1.60;;;19.80;99.90;;;;;;4891643;29;20279;-86
2023/07/21 10:21:19;;;;;;;2.17;1.60;;;19.80;99.90;;;;;;4902480;28;20266;-86
2023/07/21 10:23:54;;;;;;;2.70;1.73;;;20.20;99.90;;;;;;4954668;28;20220;-86
2023/07/21 10:26:22;;;;;;;2.17;1.73;;;20.50;99.90;;;;;;4969690;28;20674;-86
2023/07/21 10:29:00;;;;;;;2.47;1.63;;;20.90;99.90;;;;;;4958924;28;20714;-86
2023/07/21 10:31:36;;;;;;;1.50;1.37;;;21.10;99.90;;;;;;4968830;28;20835;-87
2023/07/21 10:34:14;;;;;;;2.17;1.40;;;20.00;99.90;;;;;;4960511;28;20728;-86
2023/07/21 10:37:02;;;;;;;2.07;1.70;;;19.10;99.90;;;;;;4970257;28;20172;-86
2023/07/21 10:39:52;;;;;;;2.77;1.40;;;18.60;99.90;;;;;;4947116;28;20215;-87
2023/07/21 10:42:35;;;;;;;1.70;1.33;;;18.40;99.90;;;;;;4992135;28;20231;-86
2023/07/21 10:45:17;;;;;;;2.20;1.30;;;18.10;99.90;;;;;;4958819;28;20307;-85
2023/07/21 10:47:43;;;;;;;2.47;1.30;;;17.70;99.90;;;;;;4951315;28;20221;-86
2023/07/21 10:50:09;;;;;;;1.47;0.93;;;17.50;99.90;;;;;;4963649;28;20235;-85
2023/07/21 10:52:50;;;;;;;1.90;1.20;;;17.50;99.90;;;;;;4959195;28;20215;-86
2023/07/21 10:55:23;;;;;;;1.37;1.27;;;17.40;99.90;;;;;;4989367;28;20179;-82
2023/07/21 10:57:49;;;;;;;1.93;1.33;;;17.40;99.90;;;;;;4990609;28;20637;-84
2023/07/21 11:00:15;;;;;;;3.90;2.50;;;17.30;99.90;;;;;;4955752;28;20236;-84
2023/07/21 11:02:41;;;;;;;2.50;1.50;;;17.10;99.90;;;;;;4988982;28;20219;-83
2023/07/21 11:05:10;;;;;;;3.30;1.47;;;17.00;99.90;;;;;;4971466;28;20227;-83
2023/07/21 11:07:36;;;;;;;1.00;0.80;;;16.90;99.90;;;;;;4955587;28;20211;-84
2023/07/21 11:10:02;;;;;;;1.33;1.23;;;16.70;99.90;;;;;;4955797;28;20183;-84
2023/07/21 11:12:30;;;;;;;0.90;0.90;;;16.80;99.90;;;;;;4952555;28;20228;-83
2023/07/21 11:14:56;;;;;;;4.30;1.30;;;16.90;99.90;;;;;;4939518;28;20749;-84
2023/07/21 11:17:22;;;;;;;4.47;1.93;;;17.00;99.90;;;;;;4944477;28;20303;-84
2023/07/21 11:19:48;;;;;;;9.33;2.27;;;17.20;99.90;;;;;;4943011;28;20658;-85
2023/07/21 11:22:13;;;;;;;2.53;2.33;;;17.30;99.90;;;;;;4955835;28;20315;-84
2023/07/21 11:24:39;;;;;;;9.83;2.70;;;17.60;99.90;;;;;;4956172;28;20184;-85
2023/07/21 11:27:07;;;;;;;4.07;1.60;;;17.80;99.90;;;;;;4922696;28;20224;-84
2023/07/21 11:29:41;;;;;;;5.60;2.13;;;17.90;99.90;;;;;;4995003;28;20345;-84
2023/07/21 11:32:22;;;;;;;1.80;1.40;;;17.70;99.90;;;;;;4990584;28;20234;-84
2023/07/21 11:34:56;;;;;;;1.90;1.67;;;17.80;99.90;;;;;;4975342;28;20290;-84
2023/07/21 11:37:22;;;;;;;44.63;22.00;;;17.90;99.90;;;;;;4990882;28;20291;-84
2023/07/21 11:39:55;;;;;;;22.10;15.90;;;18.20;99.90;;;;;;4991526;28;20287;-84
2023/07/21 11:42:21;;;;;;;8.73;4.53;;;18.50;99.90;;;;;;5007555;28;20810;-85
2023/07/21 11:44:47;;;;;;;2.47;2.20;;;18.90;99.90;;;;;;4989875;28;20226;-84
2023/07/21 11:47:13;;;;;;;6.13;3.10;;;19.00;99.90;;;;;;4958249;28;20239;-85
2023/07/21 11:49:41;;;;;;;7.90;2.80;;;19.10;99.90;;;;;;4974142;28;20692;-83
2023/07/21 11:52:08;;;;;;;2.57;1.93;;;19.10;99.90;;;;;;5007756;28;20179;-83
2023/07/21 11:54:44;;;;;;;1.97;1.77;;;19.30;99.90;;;;;;4991484;28;20183;-84
2023/07/21 11:57:19;;;;;;;2.50;2.17;;;19.10;99.90;;;;;;5007737;28;20415;-86
2023/07/21 11:59:45;;;;;;;2.40;1.77;;;19.10;99.90;;;;;;4990211;28;20233;-84
2023/07/21 12:02:16;;;;;;;2.07;1.90;;;19.10;99.90;;;;;;4990855;28;20244;-82
2023/07/21 12:04:42;;;;;;;2.73;2.20;;;19.00;99.90;;;;;;4990441;28;20227;-84
2023/07/21 12:07:10;;;;;;;14.10;2.13;;;19.10;99.90;;;;;;4990946;28;20320;-85
2023/07/21 12:09:39;;;;;;;6.80;3.77;;;19.30;99.90;;;;;;4992058;28;20171;-84
2023/07/21 12:12:07;;;;;;;17.73;9.37;;;19.30;99.90;;;;;;4988386;28;20291;-83
2023/07/21 12:14:33;;;;;;;9.27;7.43;;;18.90;99.90;;;;;;5007173;28;20492;-82
2023/07/21 12:16:58;;;;;;;7.43;6.73;;;18.50;99.90;;;;;;4974226;28;20887;-88
2023/07/21 12:19:30;;;;;;;16.60;8.50;;;18.60;99.90;;;;;;5007211;28;20215;-83
2023/07/21 12:21:57;;;;;;;15.60;9.73;;;18.70;99.90;;;;;;4991474;28;20222;-84
2023/07/21 12:24:23;;;;;;;3.27;2.90;;;18.90;99.90;;;;;;5008078;28;20285;-85
2023/07/21 12:26:49;;;;;;;8.30;6.17;;;19.10;99.90;;;;;;4989822;28;20560;-85
2023/07/21 12:29:15;;;;;;;9.87;4.63;;;19.00;99.90;;;;;;4972971;28;20704;-85
2023/07/21 12:31:41;;;;;;;4.60;3.47;;;19.30;99.90;;;;;;5006760;28;20227;-86
2023/07/21 12:34:08;;;;;;;26.37;5.10;;;19.40;99.90;;;;;;4972931;28;20182;-84
2023/07/21 12:36:34;;;;;;;31.70;8.80;;;19.50;99.90;;;;;;4974077;28;20183;-85
2023/07/21 12:39:02;;;;;;;21.17;3.80;;;19.60;99.90;;;;;;4973310;28;20219;-84
2023/07/21 12:41:33;;;;;;;3.50;2.03;;;19.40;99.90;;;;;;4973149;28;20278;-88
2023/07/21 12:43:59;;;;;;;3.10;1.93;;;19.20;99.90;;;;;;4974225;28;20368;-86
2023/07/21 12:46:28;;;;;;;14.93;4.03;;;19.30;99.90;;;;;;4975367;28;20861;-84
2023/07/21 12:48:56;;;;;;;1.60;1.50;;;19.20;99.90;;;;;;4963528;28;20262;-85
2023/07/21 12:51:25;;;;;;;2.37;1.70;;;19.00;99.90;;;;;;4989343;28;20322;-85
2023/07/21 12:53:51;;;;;;;18.03;4.97;;;19.00;99.90;;;;;;4980292;28;20681;-84
2023/07/21 12:56:31;;;;;;;7.13;3.27;;;18.80;99.90;;;;;;4993080;28;20213;-83
2023/07/21 12:59:02;;;;;;;16.80;3.93;;;19.00;99.90;;;;;;4985323;28;20245;-84
2023/07/21 13:01:31;;;;;;;3.23;2.10;;;18.90;99.90;;;;;;4993685;28;20234;-83
2023/07/21 13:04:00;;;;;;;2.90;1.90;;;18.90;99.90;;;;;;4977589;28;20656;-83
2023/07/21 13:06:28;;;;;;;3.10;2.60;;;19.00;99.90;;;;;;4990715;28;20215;-82
2023/07/21 13:08:55;;;;;;;5.10;1.90;;;19.10;99.90;;;;;;4990867;28;20219;-83
2023/07/21 13:11:21;;;;;;;3.03;1.80;;;19.30;99.90;;;;;;5002745;28;20215;-84
2023/07/21 13:13:51;;;;;;;3.50;2.53;;;19.30;99.90;;;;;;5004382;28;20594;-84
2023/07/21 13:16:17;;;;;;;6.10;2.93;;;19.10;99.90;;;;;;4991227;28;20654;-85
2023/07/21 13:19:09;;;;;;;6.93;3.30;;;19.30;99.90;;;;;;4974912;28;20181;-87
2023/07/21 13:21:44;;;;;;;3.30;2.90;;;19.30;99.90;;;;;;4972259;28;20263;-84
2023/07/21 13:24:13;;;;;;;3.40;2.43;;;19.20;99.90;;;;;;5009865;28;20253;-85
2023/07/21 13:26:40;;;;;;;2.93;2.10;;;19.20;99.90;;;;;;4989296;28;20651;-83
2023/07/21 13:29:07;;;;;;;3.07;2.30;;;19.30;99.90;;;;;;4990463;28;20282;-84
2023/07/21 13:31:33;;;;;;;6.77;3.17;;;19.10;99.90;;;;;;4990486;28;20235;-84
2023/07/21 13:34:02;;;;;;;4.43;2.63;;;19.00;99.90;;;;;;4983065;28;20661;-85
2023/07/21 13:36:28;;;;;;;5.77;3.30;;;19.00;99.90;;;;;;4989910;28;20200;-86
2023/07/21 13:38:57;;;;;;;6.33;3.13;;;19.10;99.90;;;;;;4989268;28;20697;-85
2023/07/21 13:41:22;;;;;;;5.37;3.23;;;19.10;99.90;;;;;;4990346;28;20319;-83
2023/07/21 13:43:48;;;;;;;4.83;3.37;;;19.10;99.90;;;;;;4990377;28;20307;-86
2023/07/21 13:46:24;;;;;;;4.97;3.20;;;19.30;99.90;;;;;;4989185;28;20639;-84
2023/07/21 13:49:06;;;;;;;3.03;2.63;;;19.30;99.90;;;;;;4990346;28;20215;-84
2023/07/21 13:51:32;;;;;;;4.90;2.73;;;19.30;99.90;;;;;;4973801;28;20234;-86
2023/07/21 13:53:58;;;;;;;6.63;2.93;;;19.20;99.90;;;;;;4991180;28;20656;-82
2023/07/21 13:56:24;;;;;;;6.33;3.30;;;19.20;99.90;;;;;;4989352;28;20216;-84
2023/07/21 13:59:07;;;;;;;6.93;3.10;;;19.20;99.90;;;;;;4989878;28;20274;-88
2023/07/21 14:01:33;;;;;;;3.67;2.77;;;19.20;99.90;;;;;;4967041;28;20314;-83
2023/07/21 14:04:02;;;;;;;5.10;3.37;;;19.20;99.90;;;;;;4989962;28;20263;-85
2023/07/21 14:06:42;;;;;;;7.33;3.57;;;19.30;99.90;;;;;;4990740;28;20274;-84
2023/07/21 14:09:09;;;;;;;5.23;3.47;;;19.20;99.90;;;;;;4974890;28;20228;-85
2023/07/21 14:11:35;;;;;;;6.77;3.77;;;19.10;99.90;;;;;;5006614;28;20227;-84
2023/07/21 14:14:02;;;;;;;13.60;3.87;;;19.10;99.90;;;;;;4970663;28;20260;-84
2023/07/21 14:16:31;;;;;;;5.97;3.13;;;19.20;99.90;;;;;;4954580;28;20248;-84
2023/07/21 14:18:57;;;;;;;3.93;2.70;;;19.30;99.90;;;;;;4954743;28;20743;-85
2023/07/21 14:21:24;;;;;;;4.53;3.10;;;19.20;99.90;;;;;;4954724;28;20870;-84
2023/07/21 14:23:50;;;;;;;5.10;3.17;;;19.30;99.90;;;;;;4950159;28;20225;-85
2023/07/21 14:26:17;;;;;;;4.93;2.80;;;19.60;99.90;;;;;;4963161;28;20701;-82
2023/07/21 14:28:46;;;;;;;2.33;2.13;;;19.50;99.90;;;;;;4957816;28;20229;-83
2023/07/21 14:31:23;;;;;;;3.20;1.70;;;19.30;99.90;;;;;;4954332;28;20291;-85
2023/07/21 14:33:49;;;;;;;3.67;1.90;;;19.10;99.90;;;;;;4940594;28;20638;-84